• Join FlightAware (Why Join?)
  • Login
  • US Flag 
05:16AM EDT


 

Airport Tracker/Info


-or-


 

Live Flight TrackerFlight Track Log ✈ TCF5884 ✈ 24-Apr-2012 ✈ KSAV - KLGA

Flight Track Log - Related Links

Times and Time Zones

All times are in EDT time to prevent confusion due to time zone crossing. See the TCF5884 flight status page for this flight to view local times or setup timezone preferences in your user account.

Time Position Orientation Groundspeed Altitude Reporting Facility
EDT Latitude Longitude Course Direction KTS MPH feet Rate Location/Type
07:32AM 32.1531 -81.1873 333° Northwest  Level FlightAware Approximate
07:32AM 32.1844 -81.2061 31° Northeast 215 247 3,600  Level Jacksonville Center
07:33AM 32.2508 -81.1583 32° Northeast 244 281 6,400 1,980 Climbing Jacksonville Center
07:34AM 32.3147 -81.1103 32° Northeast 272 313 7,600 1,800 Climbing Jacksonville Center
07:35AM 32.3831 -81.0600 32° Northeast 272 313 10,100 2,280 Climbing Jacksonville Center
07:36AM 32.4511 -81.0092 30° Northeast 289 333 12,200 2,280 Climbing Jacksonville Center
07:37AM 32.5275 -80.9558 34° Northeast 308 354 14,700 2,400 Climbing Jacksonville Center
07:38AM 32.6058 -80.8925 30° Northeast 318 366 17,000 2,280 Climbing Jacksonville Center
07:39AM 32.6864 -80.8364 33° Northeast 328 377 19,300 1,980 Climbing Jacksonville Center
07:40AM 32.7689 -80.7728 32° Northeast 338 389 21,000 1,680 Climbing Jacksonville Center
07:41AM 32.8617 -80.7039 32° Northeast 344 396 22,700 1,200 Climbing Jacksonville Center
07:42AM 32.9503 -80.6375 32° Northeast 350 403 23,500 1,140 Climbing Jacksonville Center
07:43AM 33.0428 -80.5681 32° Northeast 366 421 25,000 1,380 Climbing Jacksonville Center
07:44AM 33.1356 -80.4989 32° Northeast 383 441 26,300 1,320 Climbing Jacksonville Center
07:45AM 33.2322 -80.4267 33° Northeast 394 453 27,700 1,260 Climbing Jacksonville Center
07:46AM 33.3289 -80.3519 32° Northeast 401 461 28,900 1,140 Climbing Jacksonville Center
07:47AM 33.4317 -80.2742 32° Northeast 419 482 30,000 1,080 Climbing Jacksonville Center
07:48AM 33.5364 -80.1964 32° Northeast 432 497 31,100 1,080 Climbing Jacksonville Center
07:49AM 33.6450 -80.1133 33° Northeast 442 509 32,200 960 Climbing Jacksonville Center
07:50AM 33.7517 -80.0300 33° Northeast 450 518 33,100 780 Climbing Jacksonville Center
07:51AM 33.8606 -79.9464 34° Northeast 455 524 33,800 900 Climbing Jacksonville Center
07:52AM 33.9689 -79.8578 26° Northeast 455 524 35,000 600 Climbing Jacksonville Center
07:53AM 34.0819 -79.7911 26° Northeast 455 524 35,000  Level Jacksonville Center
07:54AM 34.1953 -79.7242 25° Northeast 443 510 35,000  Level Jacksonville Center
07:55AM 34.3042 -79.6625 24° Northeast 443 510 35,000  Level Jacksonville Center
07:57AM 34.4475 -79.5836 23° Northeast 450 518 35,000  Level Washington Center
07:58AM 34.5619 -79.5236 25° Northeast 450 518 35,000  Level Washington Center
07:59AM 34.6789 -79.4586 24° Northeast 452 520 35,000  Level Washington Center
08:00AM 34.7936 -79.3958 25° Northeast 446 513 35,000  Level Washington Center
08:01AM 34.9083 -79.3303 25° Northeast 446 513 35,000  Level Washington Center
08:02AM 35.0208 -79.2669 24° Northeast 446 513 35,000  Level Washington Center
08:03AM 35.1269 -79.2083 24° Northeast 446 513 35,000  Level Washington Center
08:04AM 35.2417 -79.1447 25° Northeast 446 513 35,000  Level Washington Center
08:05AM 35.3561 -79.0786 25° Northeast 446 513 35,000  Level Washington Center
08:06AM 35.4728 -79.0122 24° Northeast 446 513 35,000  Level Washington Center
08:07AM 35.6000 -78.9436 25° Northeast 446 513 35,000  Level Washington Center
08:08AM 35.7144 -78.8767 24° Northeast 446 513 35,000  Level Washington Center
08:09AM 35.8311 -78.8125 33° Northeast 446 513 35,000  Level Washington Center
08:10AM 35.9378 -78.7269 35° Northeast 441 507 35,000  Level Washington Center
08:11AM 36.0444 -78.6361 35° Northeast 460 529 35,000  Level Washington Center
08:12AM 36.1489 -78.5450 34° Northeast 460 529 35,000  Level Washington Center
08:13AM 36.2447 -78.4636 36° Northeast 460 529 35,000  Level Washington Center
08:14AM 36.3492 -78.3694 36° Northeast 460 529 35,000  Level Washington Center
08:15AM 36.4556 -78.2750 35° Northeast 460 529 35,000  Level Washington Center
08:16AM 36.5619 -78.1831 38° Northeast 460 529 35,000  Level Washington Center
08:17AM 36.6728 -78.0753 36° Northeast 460 529 35,000  Level Washington Center
08:18AM 36.7792 -77.9803 40° Northeast 465 535 35,000  Level Washington Center
08:19AM 36.8792 -77.8742 53° Northeast 465 535 35,000  Level Washington Center
08:20AM 36.9567 -77.7467 53° Northeast 460 529 35,000  Level Washington Center
08:21AM 37.0339 -77.6161 53° Northeast 465 535 35,000  Level Washington Center
08:22AM 37.1133 -77.4828 55° Northeast 465 535 35,000  Level Washington Center
08:23AM 37.1906 -77.3464 53° Northeast 470 541 35,000  Level Washington Center
08:24AM 37.2611 -77.2306 48° Northeast 470 541 35,000  Level Washington Center
08:25AM 37.3567 -77.0969 30° Northeast 470 541 35,000  Level Washington Center
08:26AM 37.4597 -77.0231 32° Northeast 468 539 35,000  Level Washington Center
08:27AM 37.5839 -76.9256 30° Northeast 468 539 35,000  Level Washington Center
08:28AM 37.6953 -76.8436 30° Northeast 468 539 35,000  Level Washington Center
08:29AM 37.8089 -76.7589 30° Northeast 468 539 35,000  Level Washington Center
08:30AM 37.9200 -76.6764 31° Northeast 468 539 35,000  Level Washington Center
08:31AM 38.0336 -76.5883 30° Northeast 474 545 35,000  Level Washington Center
08:32AM 38.1467 -76.5053 31° Northeast 474 545 35,000  Level Washington Center
08:33AM 38.2622 -76.4167 33° Northeast 474 545 35,000  Level Washington Center
08:34AM 38.3733 -76.3253 37° Northeast 479 551 35,000  Level Washington Center
08:35AM 38.4781 -76.2256 36° Northeast 474 545 35,000 -60 Level Washington Center
08:36AM 38.5847 -76.1281 36° Northeast 474 545 34,900 -1,320 Descending Washington Center
08:37AM 38.6936 -76.0278 36° Northeast 474 545 32,500 -2,460 Descending Washington Center
08:38AM 38.7961 -75.9325 36° Northeast 468 539 30,100 -2,340 Descending Washington Center
08:39AM 38.8942 -75.8422 38° Northeast 453 521 27,800 -1,560 Descending Washington Center
08:40AM 38.9861 -75.7492 35° Northeast 436 502 27,000 -420 Descending Washington Center
08:41AM 39.0822 -75.6611 36° Northeast 425 489 27,000  Level Washington Center
08:42AM 39.1781 -75.5703 36° Northeast 425 489 27,000  Level Washington Center
08:43AM 39.2739 -75.4789 34° Northeast 425 489 27,000  Level Washington Center
08:44AM 39.3736 -75.3928 34° Northeast 430 495 27,000 -840 Level Washington Center
08:45AM 39.4714 -75.3067 36° Northeast 430 495 25,400 -1,920 Descending Washington Center
08:46AM 39.5650 -75.2175 34° Northeast 425 489 23,200 -2,160 Descending Washington Center
08:47AM 39.6564 -75.1361 35° Northeast 413 475 21,100 -2,040 Descending Washington Center
08:48AM 39.7375 -75.0625 33° Northeast 401 461 19,200 -2,160 Descending Washington Center
08:49AM 39.8369 -74.9781 40° Northeast 395 455 16,900 -2,220 Descending Washington Center
08:50AM 39.9833 -74.8167 52° Northeast 380 437 13,200 -2,040 Descending New York TRACON
08:51AM 40.0333 -74.7333 49° Northeast 367 422 11,600 -1,740 Descending New York TRACON
08:52AM 40.1000 -74.6333 44° Northeast 331 381 9,900 -1,740 Descending New York TRACON
08:53AM 40.1667 -74.5500 46° Northeast 303 349 8,100 -960 Descending New York TRACON
08:54AM 40.2167 -74.4833 44° Northeast 300 345 8,000 -60 Descending New York TRACON
08:55AM 40.2833 -74.4000 52° Northeast 301 346 8,000  Level New York TRACON
08:56AM 40.3333 -74.3167 37° Northeast 302 348 8,000  Level New York TRACON
08:57AM 40.4000 -74.2500 52° Northeast 302 348 8,000 -60 Level New York TRACON
08:58AM 40.4500 -74.1667 30° Northeast 299 344 7,900 -1,080 Descending New York TRACON
08:59AM 40.5167 -74.1167 37° Northeast 295 339 5,900 -1,920 Descending New York TRACON
09:00AM 40.5833 -74.0500 30° Northeast 290 334 4,100 -1,020 Descending New York TRACON
09:01AM 40.6500 -74.0000 45° Northeast 252 290 4,000 -60 Descending New York TRACON
09:02AM 40.7000 -73.9333 57° Northeast 248 285 4,000  Level New York TRACON
09:03AM 40.7333 -73.8667 62° Northeast 253 291 4,000  Level New York TRACON
09:04AM 40.7667 -73.7833 45° Northeast 251 289 4,000  Level New York TRACON
09:05AM 40.8167 -73.7167 45° Northeast 245 282 4,000  Level New York TRACON
09:06AM 40.8667 -73.6500 27° Northeast 244 281 4,000  Level New York TRACON
09:07AM 40.9167 -73.6167 339° North 206 237 4,000  Level New York TRACON
09:08AM 40.9500 -73.6333 339° North 184 212 4,000  Level New York TRACON